createdAt,value
2023-05-22T00:02:21.254Z,13.30
2023-05-22T00:04:47.972Z,14.13
2023-05-22T00:07:15.946Z,14.15
2023-05-22T00:09:42.547Z,14.05
2023-05-22T00:12:09.378Z,13.98
2023-05-22T00:14:36.001Z,14.60
2023-05-22T00:17:02.613Z,14.95
2023-05-22T00:19:29.426Z,14.30
2023-05-22T00:21:56.126Z,14.82
2023-05-22T00:24:24.115Z,14.05
2023-05-22T00:26:50.734Z,15.70
2023-05-22T00:29:17.376Z,14.60
2023-05-22T00:31:44.093Z,16.55
2023-05-22T00:34:10.765Z,15.40
2023-05-22T00:36:37.451Z,17.55
2023-05-22T00:39:04.151Z,15.38
2023-05-22T00:41:32.659Z,15.50
2023-05-22T00:43:59.413Z,16.15
2023-05-22T00:46:26.149Z,16.10
2023-05-22T00:48:52.816Z,15.63
2023-05-22T00:51:21.220Z,16.67
2023-05-22T00:53:48.046Z,15.38
2023-05-22T00:56:15.512Z,15.07
2023-05-22T00:58:43.884Z,14.75
2023-05-22T01:01:11.459Z,16.58
2023-05-22T01:03:39.486Z,15.43
2023-05-22T01:06:06.677Z,14.75
2023-05-22T01:08:33.603Z,15.82
2023-05-22T01:11:04.546Z,16.40
2023-05-22T01:13:42.181Z,16.15
2023-05-22T01:16:17.673Z,16.20
2023-05-22T01:18:50.909Z,16.52
2023-05-22T01:21:24.416Z,16.67
2023-05-22T01:24:16.127Z,16.95
2023-05-22T01:27:14.430Z,16.48
2023-05-22T01:29:57.091Z,16.70
2023-05-22T01:32:27.068Z,16.13
2023-05-22T01:34:56.785Z,16.50
2023-05-22T01:37:24.665Z,16.20
2023-05-22T01:39:52.946Z,17.60
2023-05-22T01:42:19.682Z,16.45
2023-05-22T01:44:48.530Z,16.52
2023-05-22T01:47:15.611Z,17.15
2023-05-22T01:49:44.555Z,17.33
2023-05-22T01:52:20.381Z,17.10
2023-05-22T01:54:51.863Z,15.82
2023-05-22T01:57:21.813Z,16.55
2023-05-22T01:59:52.331Z,16.55
2023-05-22T02:02:21.094Z,16.35
2023-05-22T02:04:55.640Z,17.35
2023-05-22T02:07:22.737Z,16.38
2023-05-22T02:09:51.492Z,17.40
2023-05-22T02:12:18.772Z,16.50
2023-05-22T02:14:45.621Z,16.67
2023-05-22T02:17:12.579Z,18.05
2023-05-22T02:19:39.364Z,17.17
2023-05-22T02:22:07.374Z,17.00
2023-05-22T02:24:36.687Z,16.75
2023-05-22T02:27:03.466Z,18.25
2023-05-22T02:29:30.100Z,17.13
2023-05-22T02:31:56.896Z,16.55
2023-05-22T02:34:25.851Z,17.38
2023-05-22T02:36:52.545Z,17.40
2023-05-22T02:39:20.638Z,18.23
2023-05-22T02:41:47.201Z,18.08
2023-05-22T02:44:13.988Z,17.15
2023-05-22T02:46:40.659Z,18.35
2023-05-22T02:49:07.731Z,17.98
2023-05-22T02:51:34.402Z,17.33
2023-05-22T02:54:01.059Z,17.95
2023-05-22T02:56:29.041Z,16.95
2023-05-22T02:58:55.762Z,19.10
2023-05-22T03:01:22.411Z,17.48
2023-05-22T03:03:49.204Z,17.30
2023-05-22T03:06:16.076Z,17.17
2023-05-22T03:08:42.732Z,18.13
2023-05-22T03:11:10.041Z,18.42
2023-05-22T03:13:37.961Z,17.42
2023-05-22T03:16:05.329Z,17.52
2023-05-22T03:18:35.247Z,17.40
2023-05-22T03:21:01.820Z,18.52
2023-05-22T03:23:28.459Z,18.65
2023-05-22T03:25:55.142Z,18.73
2023-05-22T03:28:25.411Z,18.83
2023-05-22T03:30:53.378Z,17.98
2023-05-22T03:33:25.008Z,18.58
2023-05-22T03:35:51.627Z,19.10
2023-05-22T03:38:18.237Z,17.92
2023-05-22T03:40:44.864Z,18.85
2023-05-22T03:43:11.556Z,18.02
2023-05-22T03:45:39.109Z,19.25
2023-05-22T03:48:07.432Z,18.98
2023-05-22T03:50:34.146Z,17.95
2023-05-22T03:53:00.801Z,18.33
2023-05-22T03:55:27.425Z,18.35
2023-05-22T03:57:54.077Z,18.92
2023-05-22T04:00:20.800Z,18.55
2023-05-22T04:02:47.509Z,17.90
2023-05-22T04:05:16.142Z,18.08
2023-05-22T04:07:43.588Z,18.05
2023-05-22T04:10:11.096Z,18.23
2023-05-22T04:12:37.770Z,18.27
2023-05-22T04:15:05.168Z,18.42
2023-05-22T04:17:32.190Z,17.58
2023-05-22T04:19:58.824Z,18.27
2023-05-22T04:22:27.148Z,17.42
2023-05-22T04:24:53.746Z,17.98
2023-05-22T04:27:20.401Z,17.38
2023-05-22T04:29:46.979Z,18.30
2023-05-22T04:32:13.622Z,17.20
2023-05-22T04:34:40.271Z,18.00
2023-05-22T04:37:06.903Z,17.05
2023-05-22T04:39:34.846Z,18.52
2023-05-22T04:42:01.530Z,18.00
2023-05-22T04:44:28.131Z,17.90
2023-05-22T04:46:54.762Z,18.52
2023-05-22T04:49:21.428Z,19.15
2023-05-22T04:51:48.034Z,19.85
2023-05-22T04:54:14.659Z,19.10
2023-05-22T04:56:42.804Z,20.42
2023-05-22T04:59:09.689Z,20.65
2023-05-22T05:01:38.467Z,20.27
2023-05-22T05:04:05.346Z,21.30
2023-05-22T05:06:31.922Z,21.02
2023-05-22T05:08:58.507Z,21.75
2023-05-22T05:11:25.110Z,22.73
2023-05-22T05:13:53.090Z,22.20
2023-05-22T05:16:19.768Z,22.52
2023-05-22T05:18:46.512Z,22.38
2023-05-22T05:21:13.461Z,23.55
2023-05-22T05:23:40.079Z,23.75
2023-05-22T05:26:06.951Z,23.98
2023-05-22T05:28:33.713Z,23.77
2023-05-22T05:31:02.337Z,24.38
2023-05-22T05:33:47.811Z,24.40
2023-05-22T05:36:40.339Z,22.95
2023-05-22T05:39:07.298Z,23.90
2023-05-22T05:41:35.031Z,23.88
2023-05-22T05:44:06.646Z,24.70
2023-05-22T05:46:35.208Z,23.70
2023-05-22T05:49:06.890Z,25.08
2023-05-22T05:51:33.605Z,23.88
2023-05-22T05:54:00.271Z,23.27
2023-05-22T05:56:27.007Z,24.70
2023-05-22T05:58:54.219Z,24.08
2023-05-22T06:01:44.792Z,25.10
2023-05-22T06:04:18.302Z,24.23
2023-05-22T06:06:47.205Z,25.33
2023-05-22T06:09:13.810Z,23.95
2023-05-22T06:12:09.896Z,24.33
2023-05-22T06:14:36.660Z,24.83
2023-05-22T06:17:05.110Z,24.88
2023-05-22T06:19:31.919Z,25.30
2023-05-22T06:21:58.569Z,25.13
2023-05-22T06:24:25.153Z,25.23
2023-05-22T06:26:51.955Z,24.33
2023-05-22T06:29:18.672Z,24.83
2023-05-22T06:31:46.593Z,25.25
2023-05-22T06:34:17.360Z,24.92
2023-05-22T06:36:44.101Z,25.17
2023-05-22T06:39:10.783Z,24.25
2023-05-22T06:42:00.239Z,24.17
2023-05-22T06:44:43.855Z,24.85
2023-05-22T06:47:10.996Z,24.90
2023-05-22T06:49:39.063Z,24.80
2023-05-22T06:52:06.080Z,26.80
2023-05-22T06:54:33.354Z,26.30
2023-05-22T06:57:00.025Z,25.73
2023-05-22T06:59:27.797Z,26.52
2023-05-22T07:02:06.515Z,25.27
2023-05-22T07:04:50.812Z,26.45
2023-05-22T07:09:48.229Z,26.02
2023-05-22T07:12:15.379Z,27.25
2023-05-22T07:14:41.982Z,27.63
2023-05-22T07:17:08.864Z,26.63
2023-05-22T07:22:09.772Z,28.27
2023-05-22T07:24:38.812Z,30.30
2023-05-22T07:27:06.482Z,28.52
2023-05-22T07:29:33.980Z,27.30
2023-05-22T07:32:01.568Z,28.60
2023-05-22T07:34:30.957Z,31.25
2023-05-22T07:36:58.256Z,29.50
2023-05-22T07:39:26.338Z,29.60
2023-05-22T07:41:54.509Z,30.55
2023-05-22T07:44:21.995Z,29.98
2023-05-22T07:46:48.660Z,29.48
2023-05-22T07:49:20.003Z,31.08
2023-05-22T07:51:47.409Z,30.85
2023-05-22T07:54:15.642Z,30.70
2023-05-22T07:56:46.284Z,30.27
2023-05-22T07:59:15.291Z,31.73
2023-05-22T08:01:41.998Z,30.98
2023-05-22T08:04:08.995Z,29.80
2023-05-22T08:06:36.089Z,31.38
2023-05-22T08:09:03.389Z,31.05
2023-05-22T08:11:30.191Z,32.05
2023-05-22T08:13:58.150Z,32.55
2023-05-22T08:16:24.928Z,32.38
2023-05-22T08:18:51.730Z,31.80
2023-05-22T08:21:18.714Z,33.35
2023-05-22T08:23:45.480Z,34.38
2023-05-22T08:26:12.154Z,34.35
2023-05-22T08:28:38.788Z,33.03
2023-05-22T08:31:07.024Z,33.15
2023-05-22T08:33:33.642Z,34.70
2023-05-22T08:36:00.226Z,33.38
2023-05-22T08:38:26.959Z,32.13
2023-05-22T08:40:54.364Z,33.38
2023-05-22T08:43:21.072Z,34.53
2023-05-22T08:45:59.628Z,34.90
2023-05-22T08:48:30.014Z,33.33
2023-05-22T08:50:58.281Z,34.35
2023-05-22T08:53:27.817Z,34.58
2023-05-22T08:55:55.031Z,35.30
2023-05-22T08:58:22.191Z,33.95
2023-05-22T09:00:49.245Z,35.83
2023-05-22T09:03:16.111Z,33.70
2023-05-22T09:05:44.404Z,34.17
2023-05-22T09:08:19.752Z,37.13
2023-05-22T09:10:47.395Z,33.83
2023-05-22T09:13:24.809Z,35.97
2023-05-22T09:15:51.429Z,36.58
2023-05-22T09:18:18.027Z,37.63
2023-05-22T09:20:46.064Z,36.90
2023-05-22T09:23:13.310Z,36.88
2023-05-22T09:25:41.803Z,35.85
2023-05-22T09:28:08.612Z,38.00
2023-05-22T09:30:35.312Z,36.45
2023-05-22T09:33:02.066Z,38.38
2023-05-22T09:35:32.080Z,38.15
2023-05-22T09:38:00.170Z,38.47
2023-05-22T09:40:27.698Z,38.70
2023-05-22T09:42:54.378Z,38.88
2023-05-22T09:45:22.064Z,40.35
2023-05-22T09:47:49.110Z,39.15
2023-05-22T09:50:15.831Z,40.50
2023-05-22T09:52:44.908Z,39.58
2023-05-22T09:55:13.858Z,39.25
2023-05-22T09:57:42.335Z,39.20
2023-05-22T10:00:12.074Z,38.10
2023-05-22T10:02:43.739Z,41.33
2023-05-22T10:05:11.572Z,37.55
2023-05-22T10:07:45.549Z,38.40
2023-05-22T10:10:16.708Z,38.03
2023-05-22T10:12:47.698Z,41.07
2023-05-22T10:15:17.231Z,40.50
2023-05-22T10:17:44.566Z,39.17
2023-05-22T10:20:12.505Z,39.25
2023-05-22T10:22:39.252Z,39.13
2023-05-22T10:25:09.143Z,37.97
2023-05-22T10:27:39.661Z,39.40
2023-05-22T10:30:18.131Z,39.22
2023-05-22T10:33:09.890Z,38.55
2023-05-22T10:38:25.450Z,39.80
2023-05-22T10:40:52.474Z,37.70
2023-05-22T10:43:21.408Z,39.45
2023-05-22T10:45:48.481Z,39.90
2023-05-22T10:48:15.389Z,38.53
2023-05-22T10:50:51.346Z,38.80
2023-05-22T10:53:19.533Z,38.90
2023-05-22T10:55:49.663Z,38.72
2023-05-22T10:58:17.038Z,39.75
2023-05-22T11:00:45.147Z,38.35
2023-05-22T11:03:17.937Z,39.38
2023-05-22T11:05:52.882Z,38.45
2023-05-22T11:08:47.694Z,39.22
2023-05-22T11:11:14.402Z,37.70
2023-05-22T11:13:41.504Z,40.75
2023-05-22T11:16:10.074Z,39.55
2023-05-22T11:18:37.165Z,38.22
2023-05-22T11:21:04.457Z,38.45
2023-05-22T11:23:34.076Z,37.35
2023-05-22T11:26:17.543Z,37.80
2023-05-22T11:28:49.222Z,38.45
2023-05-22T11:31:17.802Z,37.15
2023-05-22T11:33:45.741Z,38.75
2023-05-22T11:36:12.921Z,40.67
2023-05-22T11:38:40.250Z,36.08
2023-05-22T11:41:08.760Z,38.80
2023-05-22T11:43:35.380Z,37.92
2023-05-22T11:46:06.423Z,35.60
2023-05-22T11:48:34.588Z,35.63
2023-05-22T11:51:01.499Z,35.83
2023-05-22T11:53:29.398Z,35.95
2023-05-22T11:55:56.058Z,35.45
2023-05-22T11:58:27.360Z,35.17
2023-05-22T12:00:57.964Z,36.33
2023-05-22T12:03:25.847Z,35.70
2023-05-22T12:05:54.518Z,34.67
2023-05-22T12:08:21.354Z,36.63
2023-05-22T12:10:49.147Z,35.28
2023-05-22T12:13:22.645Z,36.08
2023-05-22T12:15:49.246Z,34.97
2023-05-22T12:18:18.139Z,33.58
2023-05-22T12:20:44.970Z,33.58
2023-05-22T12:23:21.200Z,35.13
2023-05-22T12:25:47.832Z,33.47
2023-05-22T12:28:14.427Z,33.60
2023-05-22T12:30:41.925Z,32.75
2023-05-22T12:33:14.854Z,33.38
2023-05-22T12:35:41.579Z,33.38
2023-05-22T12:38:08.221Z,32.65
2023-05-22T12:40:36.205Z,32.97
2023-05-22T12:43:02.813Z,30.65
2023-05-22T12:45:29.361Z,31.08
2023-05-22T12:47:56.032Z,31.42
2023-05-22T12:50:22.756Z,31.90
2023-05-22T12:52:49.443Z,31.88
2023-05-22T12:55:16.023Z,31.85
2023-05-22T12:57:43.993Z,30.80
2023-05-22T13:00:12.025Z,30.63
2023-05-22T13:02:38.840Z,30.25
2023-05-22T13:05:06.382Z,31.58
2023-05-22T13:07:33.080Z,32.05
2023-05-22T13:09:59.741Z,30.02
2023-05-22T13:12:26.331Z,29.95
2023-05-22T13:14:54.250Z,29.67
2023-05-22T13:17:20.868Z,27.40
2023-05-22T13:19:47.462Z,28.23
2023-05-22T13:22:14.272Z,25.58
2023-05-22T13:24:41.132Z,27.08
2023-05-22T13:27:07.790Z,26.65
2023-05-22T13:29:34.538Z,28.15
2023-05-22T13:32:02.711Z,25.88
2023-05-22T13:34:29.697Z,26.10
2023-05-22T13:36:56.508Z,24.65
2023-05-22T13:39:23.232Z,24.75
2023-05-22T13:41:51.517Z,24.48
2023-05-22T13:44:18.266Z,23.63
2023-05-22T13:46:44.897Z,23.83
2023-05-22T13:49:12.990Z,24.05
2023-05-22T13:51:39.585Z,22.38
2023-05-22T13:54:06.276Z,22.90
2023-05-22T13:56:32.847Z,22.50
2023-05-22T13:58:59.565Z,21.30
2023-05-22T14:01:26.204Z,22.20
2023-05-22T14:03:52.878Z,21.27
2023-05-22T14:06:20.890Z,20.40
2023-05-22T14:08:48.425Z,20.85
2023-05-22T14:11:15.065Z,20.65
2023-05-22T14:13:42.982Z,20.23
2023-05-22T14:16:09.592Z,20.10
2023-05-22T14:18:36.166Z,20.40
2023-05-22T14:21:04.677Z,20.23
2023-05-22T14:23:32.878Z,22.30
2023-05-22T14:25:59.456Z,21.55
2023-05-22T14:28:26.077Z,20.58
2023-05-22T14:30:52.807Z,19.65
2023-05-22T14:33:19.483Z,19.80
2023-05-22T14:35:46.058Z,19.17
2023-05-22T14:38:12.640Z,17.85
2023-05-22T14:40:40.582Z,17.48
2023-05-22T14:43:07.196Z,19.10
2023-05-22T14:45:33.844Z,19.00
2023-05-22T14:48:00.478Z,17.48
2023-05-22T14:50:27.152Z,17.50
2023-05-22T14:52:53.785Z,16.38
2023-05-22T14:55:20.423Z,18.08
2023-05-22T14:57:48.384Z,18.23
2023-05-22T15:00:15.631Z,17.23
2023-05-22T15:02:42.334Z,18.17
2023-05-22T15:05:09.589Z,17.58
2023-05-22T15:07:43.962Z,16.55
2023-05-22T15:10:12.434Z,18.08
2023-05-22T15:12:39.154Z,17.35
2023-05-22T15:15:08.598Z,17.73
2023-05-22T15:17:35.327Z,17.48
2023-05-22T15:20:01.991Z,17.65
2023-05-22T15:22:28.648Z,17.33
2023-05-22T15:25:05.714Z,16.40
2023-05-22T15:27:33.260Z,15.95
2023-05-22T15:29:59.922Z,17.05
2023-05-22T15:32:27.834Z,17.02
2023-05-22T15:34:54.574Z,17.08
2023-05-22T15:37:21.142Z,16.42
2023-05-22T15:39:47.738Z,16.98
2023-05-22T15:42:14.404Z,16.45
2023-05-22T15:44:40.975Z,16.75
2023-05-22T15:47:07.681Z,16.75
2023-05-22T15:49:35.780Z,17.55
2023-05-22T15:52:02.577Z,16.50
2023-05-22T15:54:29.254Z,17.02
2023-05-22T15:56:55.858Z,17.95
2023-05-22T15:59:22.718Z,16.33
2023-05-22T16:01:49.576Z,16.63
2023-05-22T16:04:16.295Z,16.25
2023-05-22T16:06:44.373Z,16.83
2023-05-22T16:09:11.213Z,15.95
2023-05-22T16:11:37.964Z,15.98
2023-05-22T16:14:04.638Z,15.88
2023-05-22T16:16:31.326Z,15.05
2023-05-22T16:18:58.070Z,16.80
2023-05-22T16:21:24.746Z,15.57
2023-05-22T16:23:52.863Z,17.25
2023-05-22T16:26:19.569Z,17.50
2023-05-22T16:28:46.147Z,17.42
2023-05-22T16:31:12.835Z,17.33
2023-05-22T16:33:39.565Z,22.30
2023-05-22T16:36:06.948Z,21.13
2023-05-22T16:38:33.538Z,22.20
2023-05-22T16:41:01.440Z,23.27
2023-05-22T16:43:28.038Z,23.02
2023-05-22T16:45:54.684Z,20.42
2023-05-22T16:48:21.355Z,19.58
2023-05-22T16:50:47.964Z,19.42
2023-05-22T16:53:14.608Z,16.33
2023-05-22T16:55:41.625Z,19.77
2023-05-22T16:58:09.964Z,17.33
2023-05-22T17:00:36.923Z,18.13
2023-05-22T17:03:04.199Z,17.85
2023-05-22T17:05:31.038Z,17.17
2023-05-22T17:07:57.665Z,17.92
2023-05-22T17:10:24.222Z,17.95
2023-05-22T17:12:50.988Z,17.17
2023-05-22T17:15:19.044Z,15.23
2023-05-22T17:17:45.782Z,16.58
2023-05-22T17:20:12.479Z,16.65
2023-05-22T17:22:39.204Z,11.30
2023-05-22T17:25:06.494Z,8.88
2023-05-22T17:27:36.564Z,8.38
2023-05-22T17:30:04.609Z,7.40
2023-05-22T17:32:32.867Z,8.15
2023-05-22T17:34:59.795Z,8.13
2023-05-22T17:37:26.430Z,6.95
2023-05-22T17:39:53.673Z,7.40
2023-05-22T17:42:20.327Z,7.05
2023-05-22T17:45:21.042Z,6.53
2023-05-22T17:47:49.156Z,5.40
2023-05-22T17:50:16.222Z,3.60
2023-05-22T17:52:42.928Z,3.65
2023-05-22T17:55:09.887Z,3.72
2023-05-22T17:57:36.663Z,3.42
2023-05-22T18:00:04.112Z,3.33
2023-05-22T18:02:46.369Z,3.65
2023-05-22T18:05:14.420Z,3.53
2023-05-22T18:07:41.143Z,3.65
2023-05-22T18:10:08.620Z,4.35
2023-05-22T18:12:38.012Z,3.60
2023-05-22T18:15:05.867Z,3.50
2023-05-22T18:17:32.552Z,3.53
2023-05-22T18:20:00.923Z,4.55
2023-05-22T18:22:28.982Z,4.70
2023-05-22T18:27:43.684Z,4.10
2023-05-22T18:30:10.896Z,4.75
2023-05-22T18:32:37.527Z,4.85
2023-05-22T18:35:04.888Z,4.93
2023-05-22T18:37:32.896Z,4.93
2023-05-22T18:39:59.631Z,5.32
2023-05-22T18:42:26.365Z,4.85
2023-05-22T18:44:53.143Z,5.25
2023-05-22T18:47:20.021Z,5.50
2023-05-22T18:49:46.923Z,5.72
2023-05-22T18:52:13.650Z,6.55
2023-05-22T18:54:41.656Z,5.13
2023-05-22T18:57:08.507Z,5.70
2023-05-22T18:59:35.134Z,4.78
2023-05-22T19:02:01.957Z,5.38
2023-05-22T19:04:28.769Z,5.00
2023-05-22T19:06:55.652Z,4.60
2023-05-22T19:09:22.498Z,4.47
2023-05-22T19:11:50.607Z,4.55
2023-05-22T19:14:17.380Z,4.35
2023-05-22T19:16:44.242Z,4.10
2023-05-22T19:19:11.128Z,3.67
2023-05-22T19:21:38.067Z,3.60
2023-05-22T19:24:05.658Z,3.90
2023-05-22T19:26:32.572Z,3.55
2023-05-22T19:29:00.592Z,3.60
2023-05-22T19:31:27.544Z,3.60
2023-05-22T19:33:54.571Z,3.40
2023-05-22T19:36:21.279Z,3.00
2023-05-22T19:38:48.093Z,3.20
2023-05-22T19:41:17.844Z,3.45
2023-05-22T19:43:44.760Z,3.50
2023-05-22T19:46:12.746Z,3.83
2023-05-22T19:48:39.479Z,3.20
2023-05-22T19:51:06.147Z,3.28
2023-05-22T19:53:33.008Z,3.47
2023-05-22T19:55:59.780Z,3.50
2023-05-22T19:58:26.677Z,3.08
2023-05-22T20:00:53.329Z,3.40
2023-05-22T20:03:21.332Z,3.40
2023-05-22T20:05:49.928Z,3.42
2023-05-22T20:08:16.499Z,3.88
2023-05-22T20:10:43.159Z,3.67
2023-05-22T20:13:09.892Z,3.40
2023-05-22T20:15:36.510Z,3.53
2023-05-22T20:18:03.691Z,3.55
2023-05-22T20:20:31.737Z,3.85
2023-05-22T20:22:58.414Z,3.03
2023-05-22T20:25:25.077Z,3.88
2023-05-22T20:27:51.774Z,4.20
2023-05-22T20:30:18.775Z,4.07
2023-05-22T20:32:45.499Z,3.78
2023-05-22T20:35:12.965Z,3.35
2023-05-22T20:37:41.006Z,4.05
2023-05-22T20:40:08.638Z,3.45
2023-05-22T20:42:35.677Z,3.67
2023-05-22T20:45:02.449Z,3.63
2023-05-22T20:47:29.119Z,3.83
2023-05-22T20:49:55.762Z,3.88
2023-05-22T20:52:22.561Z,3.92
2023-05-22T20:54:50.590Z,4.15
2023-05-22T20:57:17.335Z,4.07
2023-05-22T20:59:43.982Z,3.72
2023-05-22T21:02:10.671Z,4.03
2023-05-22T21:04:37.346Z,4.55
2023-05-22T21:07:04.208Z,3.97
2023-05-22T21:09:30.867Z,3.40
2023-05-22T21:11:58.880Z,3.80
2023-05-22T21:14:25.616Z,3.50
2023-05-22T21:16:52.278Z,4.03
2023-05-22T21:19:19.092Z,3.55
2023-05-22T21:21:45.787Z,3.80
2023-05-22T21:24:12.479Z,3.95
2023-05-22T21:26:40.144Z,4.35
2023-05-22T21:29:08.272Z,4.10
2023-05-22T21:31:35.750Z,3.90
2023-05-22T21:34:02.762Z,3.80
2023-05-22T21:36:29.450Z,4.70
2023-05-22T21:38:56.206Z,4.03
2023-05-22T21:41:22.857Z,4.50
2023-05-22T21:43:49.491Z,4.30
2023-05-22T21:46:17.578Z,4.55
2023-05-22T21:48:44.480Z,4.90
2023-05-22T21:51:11.065Z,4.63
2023-05-22T21:53:39.777Z,4.32
2023-05-22T21:56:06.580Z,4.43
2023-05-22T21:58:33.304Z,4.45
2023-05-22T22:00:59.966Z,4.90
2023-05-22T22:03:28.101Z,5.13
2023-05-22T22:05:54.802Z,5.30
2023-05-22T22:08:21.406Z,5.13
2023-05-22T22:10:48.027Z,4.88
2023-05-22T22:13:14.636Z,5.43
2023-05-22T22:15:41.463Z,6.03
2023-05-22T22:18:08.159Z,5.45
2023-05-22T22:20:44.250Z,5.80
2023-05-22T22:23:11.886Z,6.22
2023-05-22T22:25:38.564Z,5.80
2023-05-22T22:28:05.210Z,5.70
2023-05-22T22:30:32.027Z,5.82
2023-05-22T22:32:58.834Z,6.05
2023-05-22T22:35:25.526Z,6.45
2023-05-22T22:37:53.536Z,6.22
2023-05-22T22:40:20.178Z,6.30
2023-05-22T22:42:46.808Z,5.82
2023-05-22T22:45:13.627Z,6.20
2023-05-22T22:47:40.387Z,6.43
2023-05-22T22:50:07.556Z,6.50
2023-05-22T22:52:34.160Z,7.07
2023-05-22T22:55:03.426Z,6.45
2023-05-22T22:57:30.060Z,7.40
2023-05-22T22:59:57.162Z,7.70
2023-05-22T23:02:23.834Z,8.43
2023-05-22T23:04:50.585Z,8.63
2023-05-22T23:07:17.344Z,9.65
2023-05-22T23:09:43.962Z,9.70
2023-05-22T23:12:11.942Z,9.45
2023-05-22T23:14:38.578Z,9.80
2023-05-22T23:17:05.304Z,9.43
2023-05-22T23:19:32.108Z,9.77
2023-05-22T23:21:58.891Z,10.07
2023-05-22T23:24:25.517Z,12.20
2023-05-22T23:26:52.146Z,11.95
2023-05-22T23:29:20.282Z,12.95
2023-05-22T23:31:46.961Z,13.10
2023-05-22T23:34:13.689Z,13.38
2023-05-22T23:36:40.315Z,14.70
2023-05-22T23:39:07.419Z,13.55
2023-05-22T23:41:34.394Z,14.23
2023-05-22T23:44:01.220Z,15.02
2023-05-22T23:46:29.192Z,14.60
2023-05-22T23:48:55.942Z,13.95
2023-05-22T23:51:22.568Z,15.30
2023-05-22T23:53:49.360Z,14.05
2023-05-22T23:56:16.077Z,14.65
2023-05-22T23:58:42.697Z,14.50
